sensor_id;sensor_type;location;lat;lon;timestamp;pressure;altitude;pressure_sealevel;temperature;humidity
56074;BME280;41950;55.840;37.442;2022-07-23T00:00:06;99614.88;;;19.83;60.49
56074;BME280;41950;55.840;37.442;2022-07-23T00:02:32;99622.78;;;19.83;60.40
56074;BME280;41950;55.840;37.442;2022-07-23T00:04:58;99611.66;;;19.78;60.40
56074;BME280;41950;55.840;37.442;2022-07-23T00:07:23;99631.34;;;19.87;60.47
56074;BME280;41950;55.840;37.442;2022-07-23T00:09:49;99631.34;;;19.87;60.65
56074;BME280;41950;55.840;37.442;2022-07-23T00:12:15;99621.66;;;19.87;60.43
56074;BME280;41950;55.840;37.442;2022-07-23T00:14:40;99635.75;;;19.86;60.76
56074;BME280;41950;55.840;37.442;2022-07-23T00:17:06;99630.66;;;19.83;60.54
56074;BME280;41950;55.840;37.442;2022-07-23T00:19:32;99623.03;;;19.79;60.64
56074;BME280;41950;55.840;37.442;2022-07-23T00:21:57;99636.88;;;19.82;61.17
56074;BME280;41950;55.840;37.442;2022-07-23T00:24:23;99626.34;;;19.82;61.18
56074;BME280;41950;55.840;37.442;2022-07-23T00:26:49;99624.72;;;19.80;61.06
56074;BME280;41950;55.840;37.442;2022-07-23T00:29:14;99638.75;;;19.80;61.14
56074;BME280;41950;55.840;37.442;2022-07-23T00:31:40;99627.78;;;19.72;61.50
56074;BME280;41950;55.840;37.442;2022-07-23T00:34:06;99627.94;;;19.69;61.37
56074;BME280;41950;55.840;37.442;2022-07-23T00:36:32;99641.72;;;19.74;61.92
56074;BME280;41950;55.840;37.442;2022-07-23T00:38:58;99634.22;;;19.66;62.23
56074;BME280;41950;55.840;37.442;2022-07-23T00:41:23;99636.19;;;19.63;62.11
56074;BME280;41950;55.840;37.442;2022-07-23T00:43:49;99629.56;;;19.56;62.70
56074;BME280;41950;55.840;37.442;2022-07-23T00:46:22;99640.69;;;19.61;62.44
56074;BME280;41950;55.840;37.442;2022-07-23T00:48:48;99637.28;;;19.59;62.67
56074;BME280;41950;55.840;37.442;2022-07-23T00:51:17;99642.88;;;19.53;62.63
56074;BME280;41950;55.840;37.442;2022-07-23T00:53:44;99647.28;;;19.52;62.58
56074;BME280;41950;55.840;37.442;2022-07-23T00:56:10;99638.09;;;19.43;62.64
56074;BME280;41950;55.840;37.442;2022-07-23T00:58:36;99650.31;;;19.44;62.85
56074;BME280;41950;55.840;37.442;2022-07-23T01:01:03;99645.56;;;19.35;63.16
56074;BME280;41950;55.840;37.442;2022-07-23T01:03:28;99648.19;;;19.35;63.08
56074;BME280;41950;55.840;37.442;2022-07-23T01:05:54;99647.50;;;19.32;63.23
56074;BME280;41950;55.840;37.442;2022-07-23T01:08:20;99646.75;;;19.30;63.41
56074;BME280;41950;55.840;37.442;2022-07-23T01:10:47;99636.72;;;19.21;63.44
56074;BME280;41950;55.840;37.442;2022-07-23T01:13:13;99639.56;;;19.16;63.59
56074;BME280;41950;55.840;37.442;2022-07-23T01:15:39;99648.84;;;19.23;63.73
56074;BME280;41950;55.840;37.442;2022-07-23T01:18:06;99651.50;;;19.23;63.77
56074;BME280;41950;55.840;37.442;2022-07-23T01:20:32;99650.72;;;19.21;63.72
56074;BME280;41950;55.840;37.442;2022-07-23T01:22:58;99633.03;;;19.07;63.91
56074;BME280;41950;55.840;37.442;2022-07-23T01:25:25;99645.84;;;19.13;64.02
56074;BME280;41950;55.840;37.442;2022-07-23T01:27:54;99653.81;;;19.12;64.01
56074;BME280;41950;55.840;37.442;2022-07-23T01:30:20;99645.00;;;19.13;63.91
56074;BME280;41950;55.840;37.442;2022-07-23T01:32:46;99639.91;;;19.10;64.07
56074;BME280;41950;55.840;37.442;2022-07-23T01:35:12;99643.47;;;19.09;64.13
56074;BME280;41950;55.840;37.442;2022-07-23T01:37:38;99633.94;;;19.06;64.35
56074;BME280;41950;55.840;37.442;2022-07-23T01:40:05;99641.94;;;19.05;64.34
56074;BME280;41950;55.840;37.442;2022-07-23T01:42:31;99617.22;;;18.92;64.57
56074;BME280;41950;55.840;37.442;2022-07-23T01:44:57;99644.63;;;19.03;64.80
56074;BME280;41950;55.840;37.442;2022-07-23T01:47:23;99620.44;;;18.97;64.78
56074;BME280;41950;55.840;37.442;2022-07-23T01:49:48;99634.19;;;19.02;64.72
56074;BME280;41950;55.840;37.442;2022-07-23T01:52:14;99615.66;;;18.88;64.90
56074;BME280;41950;55.840;37.442;2022-07-23T01:54:40;99638.84;;;18.97;64.93
56074;BME280;41950;55.840;37.442;2022-07-23T01:57:08;99639.53;;;19.00;64.75
56074;BME280;41950;55.840;37.442;2022-07-23T01:59:34;99642.25;;;18.99;64.80
56074;BME280;41950;55.840;37.442;2022-07-23T02:02:00;99644.72;;;19.02;64.66
56074;BME280;41950;55.840;37.442;2022-07-23T02:04:26;99634.53;;;18.96;65.20
56074;BME280;41950;55.840;37.442;2022-07-23T02:06:52;99623.41;;;18.91;65.24
56074;BME280;41950;55.840;37.442;2022-07-23T02:09:17;99636.22;;;18.97;65.20
56074;BME280;41950;55.840;37.442;2022-07-23T02:11:43;99632.50;;;19.01;65.39
56074;BME280;41950;55.840;37.442;2022-07-23T02:14:09;99629.19;;;18.97;65.15
56074;BME280;41950;55.840;37.442;2022-07-23T02:16:35;99638.69;;;19.00;65.56
56074;BME280;41950;55.840;37.442;2022-07-23T02:19:03;99634.28;;;19.00;65.45
56074;BME280;41950;55.840;37.442;2022-07-23T02:21:29;99640.38;;;19.01;65.25
56074;BME280;41950;55.840;37.442;2022-07-23T02:23:55;99645.56;;;19.02;65.06
56074;BME280;41950;55.840;37.442;2022-07-23T02:26:20;99635.97;;;19.01;65.01
56074;BME280;41950;55.840;37.442;2022-07-23T02:28:46;99637.00;;;18.99;65.12
56074;BME280;41950;55.840;37.442;2022-07-23T02:31:12;99642.84;;;19.04;64.99
56074;BME280;41950;55.840;37.442;2022-07-23T02:33:37;99643.72;;;19.04;65.27
56074;BME280;41950;55.840;37.442;2022-07-23T02:36:03;99638.53;;;19.03;65.23
56074;BME280;41950;55.840;37.442;2022-07-23T02:38:30;99641.00;;;19.06;65.38
56074;BME280;41950;55.840;37.442;2022-07-23T02:40:57;99647.03;;;19.08;65.27
56074;BME280;41950;55.840;37.442;2022-07-23T02:43:22;99640.22;;;19.04;65.19
56074;BME280;41950;55.840;37.442;2022-07-23T02:45:49;99623.06;;;18.97;65.29
56074;BME280;41950;55.840;37.442;2022-07-23T02:48:15;99641.69;;;19.09;65.28
56074;BME280;41950;55.840;37.442;2022-07-23T02:50:42;99653.66;;;19.15;64.82
56074;BME280;41950;55.840;37.442;2022-07-23T02:53:09;99650.94;;;19.17;64.97
56074;BME280;41950;55.840;37.442;2022-07-23T02:55:35;99641.25;;;19.17;65.07
56074;BME280;41950;55.840;37.442;2022-07-23T02:58:02;99645.53;;;19.20;64.64
56074;BME280;41950;55.840;37.442;2022-07-23T03:00:27;99646.31;;;19.22;64.45
56074;BME280;41950;55.840;37.442;2022-07-23T03:02:53;99627.97;;;19.20;64.50
56074;BME280;41950;55.840;37.442;2022-07-23T03:05:18;99646.06;;;19.26;64.50
56074;BME280;41950;55.840;37.442;2022-07-23T03:07:44;99625.16;;;19.23;64.71
56074;BME280;41950;55.840;37.442;2022-07-23T03:10:11;99638.69;;;19.33;64.52
56074;BME280;41950;55.840;37.442;2022-07-23T03:12:37;99649.78;;;19.38;64.43
56074;BME280;41950;55.840;37.442;2022-07-23T03:15:03;99640.28;;;19.35;64.20
56074;BME280;41950;55.840;37.442;2022-07-23T03:17:29;99654.72;;;19.44;64.18
56074;BME280;41950;55.840;37.442;2022-07-23T03:19:55;99649.53;;;19.42;64.01
56074;BME280;41950;55.840;37.442;2022-07-23T03:22:21;99654.50;;;19.49;63.88
56074;BME280;41950;55.840;37.442;2022-07-23T03:24:46;99656.19;;;19.50;63.71
56074;BME280;41950;55.840;37.442;2022-07-23T03:27:25;99658.53;;;19.56;64.11
56074;BME280;41950;55.840;37.442;2022-07-23T03:29:56;99643.66;;;19.55;63.97
56074;BME280;41950;55.840;37.442;2022-07-23T03:32:22;99655.38;;;19.65;63.74
56074;BME280;41950;55.840;37.442;2022-07-23T03:34:48;99658.59;;;19.70;63.94
56074;BME280;41950;55.840;37.442;2022-07-23T03:37:15;99649.00;;;19.69;63.68
56074;BME280;41950;55.840;37.442;2022-07-23T03:39:41;99647.00;;;19.74;63.86
56074;BME280;41950;55.840;37.442;2022-07-23T03:42:09;99655.31;;;19.82;63.66
56074;BME280;41950;55.840;37.442;2022-07-23T03:44:34;99646.66;;;19.80;63.59
56074;BME280;41950;55.840;37.442;2022-07-23T03:47:04;99645.38;;;19.87;63.66
56074;BME280;41950;55.840;37.442;2022-07-23T03:49:32;99634.81;;;19.87;63.57
56074;BME280;41950;55.840;37.442;2022-07-23T03:51:58;99632.03;;;19.90;63.50
56074;BME280;41950;55.840;37.442;2022-07-23T03:54:24;99644.25;;;20.07;63.45
56074;BME280;41950;55.840;37.442;2022-07-23T03:56:49;99652.66;;;20.14;63.41
56074;BME280;41950;55.840;37.442;2022-07-23T03:59:15;99649.66;;;20.20;63.88
56074;BME280;41950;55.840;37.442;2022-07-23T04:01:41;99655.41;;;20.26;63.48
56074;BME280;41950;55.840;37.442;2022-07-23T04:04:08;99650.09;;;20.28;63.41
56074;BME280;41950;55.840;37.442;2022-07-23T04:06:35;99643.88;;;20.29;63.34
56074;BME280;41950;55.840;37.442;2022-07-23T04:09:01;99656.44;;;20.40;63.32
56074;BME280;41950;55.840;37.442;2022-07-23T04:11:28;99646.81;;;20.38;63.58
56074;BME280;41950;55.840;37.442;2022-07-23T04:13:55;99659.22;;;20.52;63.44
56074;BME280;41950;55.840;37.442;2022-07-23T04:16:22;99647.56;;;20.56;63.39
56074;BME280;41950;55.840;37.442;2022-07-23T04:18:50;99662.84;;;20.65;63.45
56074;BME280;41950;55.840;37.442;2022-07-23T04:21:17;99660.78;;;20.71;63.38
56074;BME280;41950;55.840;37.442;2022-07-23T04:23:42;99657.59;;;20.80;63.03
56074;BME280;41950;55.840;37.442;2022-07-23T04:26:10;99661.59;;;20.87;62.86
56074;BME280;41950;55.840;37.442;2022-07-23T04:28:36;99654.41;;;20.89;62.91
56074;BME280;41950;55.840;37.442;2022-07-23T04:31:01;99659.13;;;20.98;63.22
56074;BME280;41950;55.840;37.442;2022-07-23T04:33:27;99659.78;;;21.02;63.49
56074;BME280;41950;55.840;37.442;2022-07-23T04:35:53;99668.19;;;21.08;63.06
56074;BME280;41950;55.840;37.442;2022-07-23T04:38:18;99666.13;;;21.13;62.83
56074;BME280;41950;55.840;37.442;2022-07-23T04:40:44;99652.94;;;21.13;61.67
56074;BME280;41950;55.840;37.442;2022-07-23T04:43:11;99663.22;;;21.32;61.95
56074;BME280;41950;55.840;37.442;2022-07-23T04:45:38;99666.38;;;21.39;61.74
56074;BME280;41950;55.840;37.442;2022-07-23T04:48:06;99655.22;;;21.48;61.33
56074;BME280;41950;55.840;37.442;2022-07-23T04:50:31;99655.03;;;21.51;60.99
56074;BME280;41950;55.840;37.442;2022-07-23T04:53:00;99647.66;;;21.56;59.91
56074;BME280;41950;55.840;37.442;2022-07-23T04:55:25;99651.25;;;21.69;59.10
56074;BME280;41950;55.840;37.442;2022-07-23T04:57:51;99655.28;;;21.75;58.64
56074;BME280;41950;55.840;37.442;2022-07-23T05:00:18;99644.31;;;21.81;58.10
56074;BME280;41950;55.840;37.442;2022-07-23T05:02:44;99634.38;;;21.84;57.82
56074;BME280;41950;55.840;37.442;2022-07-23T05:05:10;99636.56;;;21.92;57.56
56074;BME280;41950;55.840;37.442;2022-07-23T05:07:36;99630.78;;;22.00;56.91
56074;BME280;41950;55.840;37.442;2022-07-23T05:10:06;99634.00;;;22.05;56.81
56074;BME280;41950;55.840;37.442;2022-07-23T05:12:32;99651.56;;;22.18;56.96
56074;BME280;41950;55.840;37.442;2022-07-23T05:14:59;99632.91;;;22.22;57.23
56074;BME280;41950;55.840;37.442;2022-07-23T05:17:28;99645.41;;;22.32;56.75
56074;BME280;41950;55.840;37.442;2022-07-23T05:19:53;99637.16;;;22.37;56.74
56074;BME280;41950;55.840;37.442;2022-07-23T05:22:19;99634.00;;;22.44;56.61
56074;BME280;41950;55.840;37.442;2022-07-23T05:24:45;99640.59;;;22.51;55.59
56074;BME280;41950;55.840;37.442;2022-07-23T05:27:10;99631.59;;;22.54;55.66
56074;BME280;41950;55.840;37.442;2022-07-23T05:29:36;99636.88;;;22.67;55.62
56074;BME280;41950;55.840;37.442;2022-07-23T05:32:03;99636.47;;;22.73;55.67
56074;BME280;41950;55.840;37.442;2022-07-23T05:34:30;99636.84;;;22.81;55.33
56074;BME280;41950;55.840;37.442;2022-07-23T05:36:58;99632.28;;;22.83;55.05
56074;BME280;41950;55.840;37.442;2022-07-23T05:39:24;99634.19;;;22.94;54.96
56074;BME280;41950;55.840;37.442;2022-07-23T05:41:49;99626.13;;;22.95;55.14
56074;BME280;41950;55.840;37.442;2022-07-23T05:44:15;99631.78;;;23.03;54.52
56074;BME280;41950;55.840;37.442;2022-07-23T05:46:40;99631.44;;;23.08;55.41
56074;BME280;41950;55.840;37.442;2022-07-23T05:49:07;99628.38;;;23.14;55.21
56074;BME280;41950;55.840;37.442;2022-07-23T05:51:32;99633.34;;;23.19;54.94
56074;BME280;41950;55.840;37.442;2022-07-23T05:53:58;99624.97;;;23.25;54.66
56074;BME280;41950;55.840;37.442;2022-07-23T05:56:24;99620.00;;;23.33;55.05
56074;BME280;41950;55.840;37.442;2022-07-23T05:58:50;99624.22;;;23.35;54.59
56074;BME280;41950;55.840;37.442;2022-07-23T06:01:15;99623.66;;;23.43;53.86
56074;BME280;41950;55.840;37.442;2022-07-23T06:03:41;99623.34;;;23.48;53.88
56074;BME280;41950;55.840;37.442;2022-07-23T06:06:07;99614.09;;;23.53;53.78
56074;BME280;41950;55.840;37.442;2022-07-23T06:08:33;99626.00;;;23.60;53.50
56074;BME280;41950;55.840;37.442;2022-07-23T06:10:59;99622.56;;;23.71;53.27
56074;BME280;41950;55.840;37.442;2022-07-23T06:13:25;99623.81;;;23.78;52.79
56074;BME280;41950;55.840;37.442;2022-07-23T06:15:50;99623.38;;;23.84;52.70
56074;BME280;41950;55.840;37.442;2022-07-23T06:18:17;99615.94;;;23.89;53.10
56074;BME280;41950;55.840;37.442;2022-07-23T06:20:43;99608.81;;;23.90;53.35
56074;BME280;41950;55.840;37.442;2022-07-23T06:23:08;99607.75;;;23.92;52.47
56074;BME280;41950;55.840;37.442;2022-07-23T06:25:34;99606.44;;;23.98;52.75
56074;BME280;41950;55.840;37.442;2022-07-23T06:28:00;99618.06;;;24.08;52.73
56074;BME280;41950;55.840;37.442;2022-07-23T06:30:25;99605.16;;;24.03;52.55
56074;BME280;41950;55.840;37.442;2022-07-23T06:32:51;99620.06;;;24.17;51.99
56074;BME280;41950;55.840;37.442;2022-07-23T06:35:17;99611.03;;;24.20;52.03
56074;BME280;41950;55.840;37.442;2022-07-23T06:37:43;99615.53;;;24.30;51.63
56074;BME280;41950;55.840;37.442;2022-07-23T06:40:10;99606.84;;;24.28;51.60
56074;BME280;41950;55.840;37.442;2022-07-23T06:42:36;99602.28;;;24.30;51.55
56074;BME280;41950;55.840;37.442;2022-07-23T06:45:06;99614.63;;;24.43;50.91
56074;BME280;41950;55.840;37.442;2022-07-23T06:47:32;99616.09;;;24.47;50.73
56074;BME280;41950;55.840;37.442;2022-07-23T06:49:58;99596.78;;;24.45;50.48
56074;BME280;41950;55.840;37.442;2022-07-23T06:52:24;99603.78;;;24.46;49.83
56074;BME280;41950;55.840;37.442;2022-07-23T06:54:52;99612.25;;;24.62;49.92
56074;BME280;41950;55.840;37.442;2022-07-23T06:57:18;99615.31;;;24.69;49.17
56074;BME280;41950;55.840;37.442;2022-07-23T06:59:43;99614.94;;;24.73;50.26
56074;BME280;41950;55.840;37.442;2022-07-23T07:02:09;99607.34;;;24.80;50.50
56074;BME280;41950;55.840;37.442;2022-07-23T07:04:35;99615.81;;;24.85;50.15
56074;BME280;41950;55.840;37.442;2022-07-23T07:07:01;99615.81;;;24.85;48.67
56074;BME280;41950;55.840;37.442;2022-07-23T07:09:27;99610.50;;;24.85;49.54
56074;BME280;41950;55.840;37.442;2022-07-23T07:11:53;99604.22;;;24.86;49.28
56074;BME280;41950;55.840;37.442;2022-07-23T07:14:20;99619.34;;;24.96;49.32
56074;BME280;41950;55.840;37.442;2022-07-23T07:16:46;99599.50;;;24.89;49.11
56074;BME280;41950;55.840;37.442;2022-07-23T07:19:12;99613.22;;;25.07;49.30
56074;BME280;41950;55.840;37.442;2022-07-23T07:21:39;99615.97;;;25.17;49.24
56074;BME280;41950;55.840;37.442;2022-07-23T07:24:05;99601.16;;;25.25;49.01
56074;BME280;41950;55.840;37.442;2022-07-23T07:26:33;99602.22;;;25.34;48.88
56074;BME280;41950;55.840;37.442;2022-07-23T07:28:59;99613.91;;;25.43;48.77
56074;BME280;41950;55.840;37.442;2022-07-23T07:31:25;99601.22;;;25.46;46.89
56074;BME280;41950;55.840;37.442;2022-07-23T07:33:50;99602.31;;;25.55;47.12
56074;BME280;41950;55.840;37.442;2022-07-23T07:36:16;99595.06;;;25.68;46.80
56074;BME280;41950;55.840;37.442;2022-07-23T07:38:42;99595.78;;;25.70;47.16
56074;BME280;41950;55.840;37.442;2022-07-23T07:41:09;99589.75;;;25.68;45.95
56074;BME280;41950;55.840;37.442;2022-07-23T07:43:36;99598.31;;;25.72;46.71
56074;BME280;41950;55.840;37.442;2022-07-23T07:46:03;99586.25;;;25.79;45.96
56074;BME280;41950;55.840;37.442;2022-07-23T07:48:30;99593.13;;;25.81;46.23
56074;BME280;41950;55.840;37.442;2022-07-23T07:50:56;99599.47;;;25.90;46.25
56074;BME280;41950;55.840;37.442;2022-07-23T07:53:21;99603.56;;;25.94;44.85
56074;BME280;41950;55.840;37.442;2022-07-23T07:55:47;99614.78;;;26.09;45.44
56074;BME280;41950;55.840;37.442;2022-07-23T07:58:14;99597.06;;;26.19;45.17
56074;BME280;41950;55.840;37.442;2022-07-23T08:00:39;99602.59;;;26.38;44.51
56074;BME280;41950;55.840;37.442;2022-07-23T08:03:05;99606.47;;;26.55;44.95
56074;BME280;41950;55.840;37.442;2022-07-23T08:05:31;99595.59;;;26.58;44.76
56074;BME280;41950;55.840;37.442;2022-07-23T08:07:58;99602.69;;;26.78;44.52
56074;BME280;41950;55.840;37.442;2022-07-23T08:10:25;99593.47;;;26.83;43.14
56074;BME280;41950;55.840;37.442;2022-07-23T08:12:54;99599.78;;;26.82;42.98
56074;BME280;41950;55.840;37.442;2022-07-23T08:15:26;99584.63;;;26.82;44.03
56074;BME280;41950;55.840;37.442;2022-07-23T08:17:53;99598.47;;;26.97;43.00
56074;BME280;41950;55.840;37.442;2022-07-23T08:20:20;99596.53;;;26.99;43.39
56074;BME280;41950;55.840;37.442;2022-07-23T08:22:49;99592.63;;;27.03;43.45
56074;BME280;41950;55.840;37.442;2022-07-23T08:25:20;99598.41;;;27.08;42.14
56074;BME280;41950;55.840;37.442;2022-07-23T08:27:46;99592.03;;;27.20;42.78
56074;BME280;41950;55.840;37.442;2022-07-23T08:30:12;99582.91;;;27.23;41.70
56074;BME280;41950;55.840;37.442;2022-07-23T08:32:56;99575.31;;;27.18;41.96
56074;BME280;41950;55.840;37.442;2022-07-23T08:35:27;99588.00;;;27.35;41.53
56074;BME280;41950;55.840;37.442;2022-07-23T08:37:53;99589.84;;;27.45;41.16
56074;BME280;41950;55.840;37.442;2022-07-23T08:40:19;99589.72;;;27.46;40.82
56074;BME280;41950;55.840;37.442;2022-07-23T08:42:48;99582.38;;;27.38;40.99
56074;BME280;41950;55.840;37.442;2022-07-23T08:45:16;99580.19;;;27.44;41.82
56074;BME280;41950;55.840;37.442;2022-07-23T08:47:43;99585.25;;;27.56;41.12
56074;BME280;41950;55.840;37.442;2022-07-23T08:50:10;99570.88;;;27.68;39.97
56074;BME280;41950;55.840;37.442;2022-07-23T08:53:01;99578.72;;;27.70;40.31
56074;BME280;41950;55.840;37.442;2022-07-23T08:55:59;99580.84;;;27.76;40.39
56074;BME280;41950;55.840;37.442;2022-07-23T08:59:17;99564.47;;;27.60;40.65
56074;BME280;41950;55.840;37.442;2022-07-23T09:01:43;99567.28;;;27.49;40.44
56074;BME280;41950;55.840;37.442;2022-07-23T09:04:08;99544.59;;;27.14;40.89
56074;BME280;41950;55.840;37.442;2022-07-23T09:06:34;99549.03;;;27.04;41.69
56074;BME280;41950;55.840;37.442;2022-07-23T09:09:17;99567.88;;;27.12;41.16
56074;BME280;41950;55.840;37.442;2022-07-23T09:11:46;99579.13;;;27.25;41.46
56074;BME280;41950;55.840;37.442;2022-07-23T09:14:12;99572.13;;;27.34;41.25
56074;BME280;41950;55.840;37.442;2022-07-23T09:16:37;99573.53;;;27.38;41.38
56074;BME280;41950;55.840;37.442;2022-07-23T09:19:05;99566.50;;;27.27;41.23
56074;BME280;41950;55.840;37.442;2022-07-23T09:21:32;99568.19;;;27.28;41.10
56074;BME280;41950;55.840;37.442;2022-07-23T09:24:09;99570.44;;;27.23;40.64
56074;BME280;41950;55.840;37.442;2022-07-23T09:26:38;99576.91;;;27.30;40.33
56074;BME280;41950;55.840;37.442;2022-07-23T09:29:20;99574.66;;;27.35;40.57
56074;BME280;41950;55.840;37.442;2022-07-23T09:34:27;99573.41;;;27.70;41.73
56074;BME280;41950;55.840;37.442;2022-07-23T09:36:57;99570.31;;;27.84;40.69
56074;BME280;41950;55.840;37.442;2022-07-23T09:39:32;99566.78;;;27.93;40.89
56074;BME280;41950;55.840;37.442;2022-07-23T09:42:13;99557.53;;;27.88;38.96
56074;BME280;41950;55.840;37.442;2022-07-23T09:44:42;99571.56;;;27.90;39.46
56074;BME280;41950;55.840;37.442;2022-07-23T09:47:10;99550.38;;;27.79;39.96
56074;BME280;41950;55.840;37.442;2022-07-23T09:49:38;99555.03;;;27.96;39.52
56074;BME280;41950;55.840;37.442;2022-07-23T09:52:06;99536.19;;;28.17;38.95
56074;BME280;41950;55.840;37.442;2022-07-23T09:54:37;99554.00;;;28.45;38.46
56074;BME280;41950;55.840;37.442;2022-07-23T09:57:29;99561.88;;;28.56;37.75
56074;BME280;41950;55.840;37.442;2022-07-23T10:00:04;99553.69;;;28.68;36.67
56074;BME280;41950;55.840;37.442;2022-07-23T10:02:33;99556.34;;;28.77;37.80
56074;BME280;41950;55.840;37.442;2022-07-23T10:04:59;99547.69;;;29.03;38.34
56074;BME280;41950;55.840;37.442;2022-07-23T10:07:26;99551.13;;;29.22;36.46
56074;BME280;41950;55.840;37.442;2022-07-23T10:09:56;99549.78;;;29.36;35.79
56074;BME280;41950;55.840;37.442;2022-07-23T10:12:24;99523.75;;;29.11;35.77
56074;BME280;41950;55.840;37.442;2022-07-23T10:15:03;99537.97;;;29.11;35.82
56074;BME280;41950;55.840;37.442;2022-07-23T10:17:31;99544.06;;;29.04;35.80
56074;BME280;41950;55.840;37.442;2022-07-23T10:19:57;99549.13;;;28.97;36.85
56074;BME280;41950;55.840;37.442;2022-07-23T10:22:25;99548.47;;;28.85;36.52
56074;BME280;41950;55.840;37.442;2022-07-23T10:27:43;99545.03;;;28.37;37.31
56074;BME280;41950;55.840;37.442;2022-07-23T10:38:21;99530.63;;;28.86;36.99
56074;BME280;41950;55.840;37.442;2022-07-23T10:41:07;99522.50;;;29.33;37.33
56074;BME280;41950;55.840;37.442;2022-07-23T10:43:32;99518.59;;;29.72;36.57
56074;BME280;41950;55.840;37.442;2022-07-23T10:54:41;99496.72;;;30.90;34.02
56074;BME280;41950;55.840;37.442;2022-07-23T10:57:08;99490.66;;;31.22;32.96
56074;BME280;41950;55.840;37.442;2022-07-23T11:02:34;99498.03;;;31.95;32.94
56074;BME280;41950;55.840;37.442;2022-07-23T11:05:03;99490.16;;;32.34;32.00
56074;BME280;41950;55.840;37.442;2022-07-23T11:07:32;99490.56;;;32.70;31.43
56074;BME280;41950;55.840;37.442;2022-07-23T11:09:58;99488.44;;;33.05;30.68
56074;BME280;41950;55.840;37.442;2022-07-23T11:17:30;99488.09;;;33.70;28.69
56074;BME280;41950;55.840;37.442;2022-07-23T11:22:38;99485.59;;;34.29;27.29
56074;BME280;41950;55.840;37.442;2022-07-23T11:25:05;99484.72;;;34.14;26.74
56074;BME280;41950;55.840;37.442;2022-07-23T11:27:42;99477.50;;;33.91;27.94
56074;BME280;41950;55.840;37.442;2022-07-23T11:30:54;99483.63;;;34.23;27.76
56074;BME280;41950;55.840;37.442;2022-07-23T11:35:35;99480.63;;;34.18;27.25
56074;BME280;41950;55.840;37.442;2022-07-23T11:40:44;99469.84;;;34.40;26.34
56074;BME280;41950;55.840;37.442;2022-07-23T11:43:14;99483.09;;;34.27;26.87
56074;BME280;41950;55.840;37.442;2022-07-23T11:45:42;99476.16;;;34.10;27.43
56074;BME280;41950;55.840;37.442;2022-07-23T11:48:09;99475.13;;;34.49;27.09
56074;BME280;41950;55.840;37.442;2022-07-23T11:50:40;99473.09;;;34.65;26.27
56074;BME280;41950;55.840;37.442;2022-07-23T11:53:06;99459.69;;;35.01;26.17
56074;BME280;41950;55.840;37.442;2022-07-23T11:55:32;99469.13;;;35.42;24.99
56074;BME280;41950;55.840;37.442;2022-07-23T11:57:57;99468.31;;;35.63;24.78
56074;BME280;41950;55.840;37.442;2022-07-23T12:00:29;99454.28;;;35.52;24.78
56074;BME280;41950;55.840;37.442;2022-07-23T12:02:59;99452.28;;;35.25;24.62
56074;BME280;41950;55.840;37.442;2022-07-23T12:05:29;99454.72;;;35.20;25.12
56074;BME280;41950;55.840;37.442;2022-07-23T12:07:56;99455.09;;;35.53;24.28
56074;BME280;41950;55.840;37.442;2022-07-23T12:10:49;99453.75;;;35.42;24.84
56074;BME280;41950;55.840;37.442;2022-07-23T12:13:18;99436.47;;;35.37;24.66
56074;BME280;41950;55.840;37.442;2022-07-23T12:16:02;99448.38;;;35.42;24.65
56074;BME280;41950;55.840;37.442;2022-07-23T12:18:30;99443.63;;;34.93;25.53
56074;BME280;41950;55.840;37.442;2022-07-23T12:20:57;99454.13;;;34.44;26.07
56074;BME280;41950;55.840;37.442;2022-07-23T12:23:25;99452.50;;;34.05;26.31
56074;BME280;41950;55.840;37.442;2022-07-23T12:25:53;99444.13;;;33.77;27.46
56074;BME280;41950;55.840;37.442;2022-07-23T12:28:21;99428.94;;;33.39;27.68
56074;BME280;41950;55.840;37.442;2022-07-23T12:30:52;99426.59;;;33.05;27.91
56074;BME280;41950;55.840;37.442;2022-07-23T12:33:26;99438.00;;;32.68;28.60
56074;BME280;41950;55.840;37.442;2022-07-23T12:35:54;99445.16;;;32.20;29.24
56074;BME280;41950;55.840;37.442;2022-07-23T12:38:21;99443.34;;;31.72;29.69
56074;BME280;41950;55.840;37.442;2022-07-23T12:43:27;99435.31;;;31.05;31.52
56074;BME280;41950;55.840;37.442;2022-07-23T12:46:08;99440.25;;;30.84;31.24
56074;BME280;41950;55.840;37.442;2022-07-23T12:51:17;99432.84;;;30.69;31.92
56074;BME280;41950;55.840;37.442;2022-07-23T12:53:45;99428.72;;;30.83;31.39
56074;BME280;41950;55.840;37.442;2022-07-23T12:56:16;99417.69;;;30.94;31.59
56074;BME280;41950;55.840;37.442;2022-07-23T12:58:54;99423.59;;;31.06;31.89
56074;BME280;41950;55.840;37.442;2022-07-23T13:06:20;99408.16;;;31.00;30.35
56074;BME280;41950;55.840;37.442;2022-07-23T13:08:46;99419.91;;;30.99;30.97
56074;BME280;41950;55.840;37.442;2022-07-23T13:11:11;99414.44;;;30.74;30.76
56074;BME280;41950;55.840;37.442;2022-07-23T13:13:39;99423.03;;;30.52;31.35
56074;BME280;41950;55.840;37.442;2022-07-23T13:16:04;99426.13;;;30.39;31.92
56074;BME280;41950;55.840;37.442;2022-07-23T13:18:31;99413.69;;;30.30;31.30
56074;BME280;41950;55.840;37.442;2022-07-23T13:20:57;99417.38;;;30.29;31.82
56074;BME280;41950;55.840;37.442;2022-07-23T13:23:23;99428.88;;;30.22;32.00
56074;BME280;41950;55.840;37.442;2022-07-23T13:25:49;99404.31;;;30.26;32.87
56074;BME280;41950;55.840;37.442;2022-07-23T13:28:16;99397.16;;;30.35;33.24
56074;BME280;41950;55.840;37.442;2022-07-23T13:30:43;99399.91;;;30.43;32.94
56074;BME280;41950;55.840;37.442;2022-07-23T13:33:10;99386.38;;;30.53;33.56
56074;BME280;41950;55.840;37.442;2022-07-23T13:35:36;99394.81;;;30.66;32.44
56074;BME280;41950;55.840;37.442;2022-07-23T13:38:04;99393.69;;;30.77;31.63
56074;BME280;41950;55.840;37.442;2022-07-23T13:40:34;99396.38;;;30.77;31.78